createdAt,value
2023-03-20T00:01:30.020Z,3.13
2023-03-20T00:03:57.928Z,3.33
2023-03-20T00:06:31.350Z,3.57
2023-03-20T00:09:07.012Z,3.97
2023-03-20T00:11:48.341Z,2.77
2023-03-20T00:14:22.303Z,2.93
2023-03-20T00:16:54.421Z,3.60
2023-03-20T00:19:29.548Z,3.77
2023-03-20T00:22:03.890Z,3.47
2023-03-20T00:24:33.007Z,4.00
2023-03-20T00:27:02.732Z,3.33
2023-03-20T00:29:32.598Z,3.33
2023-03-20T00:32:02.060Z,3.90
2023-03-20T00:34:31.119Z,4.57
2023-03-20T00:37:00.265Z,4.13
2023-03-20T00:39:32.448Z,4.00
2023-03-20T00:42:08.548Z,3.93
2023-03-20T00:44:55.679Z,4.57
2023-03-20T00:47:27.009Z,4.07
2023-03-20T00:49:55.823Z,4.10
2023-03-20T00:52:26.318Z,3.40
2023-03-20T00:54:57.796Z,4.67
2023-03-20T00:57:30.844Z,3.87
2023-03-20T01:00:11.194Z,4.10
2023-03-20T01:02:38.678Z,4.37
2023-03-20T01:05:08.118Z,4.03
2023-03-20T01:07:39.453Z,3.77
2023-03-20T01:10:17.735Z,3.67
2023-03-20T01:12:46.813Z,4.37
2023-03-20T01:15:26.482Z,5.17
2023-03-20T01:17:55.956Z,4.33
2023-03-20T01:20:31.350Z,3.70
2023-03-20T01:23:01.224Z,4.10
2023-03-20T01:25:30.485Z,3.90
2023-03-20T01:27:58.038Z,3.80
2023-03-20T01:30:34.373Z,4.37
2023-03-20T01:33:11.940Z,4.00
2023-03-20T01:35:40.551Z,3.83
2023-03-20T01:38:28.757Z,3.90
2023-03-20T01:41:10.936Z,3.70
2023-03-20T01:43:39.392Z,4.23
2023-03-20T01:46:09.519Z,4.63
2023-03-20T01:48:55.093Z,3.67
2023-03-20T01:51:32.915Z,4.00
2023-03-20T01:54:17.547Z,4.60
2023-03-20T01:57:19.749Z,4.40
2023-03-20T02:00:09.487Z,5.47
2023-03-20T02:02:47.922Z,4.57
2023-03-20T02:05:41.245Z,7.87
2023-03-20T02:08:29.120Z,4.37
2023-03-20T02:11:02.033Z,4.23
2023-03-20T02:13:32.658Z,4.03
2023-03-20T02:16:07.458Z,4.40
2023-03-20T02:19:35.633Z,4.13
2023-03-20T02:22:41.521Z,3.70
2023-03-20T02:26:04.417Z,4.10
2023-03-20T02:29:20.856Z,4.23
2023-03-20T02:32:43.834Z,4.13
2023-03-20T02:35:48.450Z,4.07
2023-03-20T02:39:08.274Z,4.23
2023-03-20T02:42:03.516Z,3.87
2023-03-20T02:45:06.846Z,4.27
2023-03-20T02:48:21.757Z,6.63
2023-03-20T02:51:08.630Z,5.17
2023-03-20T02:54:09.102Z,4.37
2023-03-20T02:57:01.895Z,4.33
2023-03-20T02:59:48.047Z,5.40
2023-03-20T03:02:47.302Z,5.43
2023-03-20T03:05:24.538Z,4.50
2023-03-20T03:07:59.795Z,6.50
2023-03-20T03:11:00.544Z,4.60
2023-03-20T03:13:32.489Z,4.63
2023-03-20T03:16:11.561Z,4.90
2023-03-20T03:18:42.927Z,5.27
2023-03-20T03:21:16.585Z,5.03
2023-03-20T03:23:52.596Z,4.30
2023-03-20T03:26:32.377Z,5.30
2023-03-20T03:29:13.392Z,5.07
2023-03-20T03:31:42.624Z,5.07
2023-03-20T03:34:15.967Z,5.47
2023-03-20T03:37:02.268Z,5.33
2023-03-20T03:39:40.910Z,5.30
2023-03-20T03:42:47.984Z,4.70
2023-03-20T03:45:28.327Z,5.13
2023-03-20T03:48:12.766Z,5.27
2023-03-20T03:50:48.722Z,5.37
2023-03-20T03:53:36.475Z,4.93
2023-03-20T03:56:14.729Z,5.63
2023-03-20T03:58:51.406Z,4.93
2023-03-20T04:01:26.078Z,4.70
2023-03-20T04:04:01.035Z,5.30
2023-03-20T04:06:28.720Z,5.37
2023-03-20T04:09:02.682Z,6.03
2023-03-20T04:11:29.605Z,4.93
2023-03-20T04:13:58.966Z,4.83
2023-03-20T04:16:30.944Z,6.73
2023-03-20T04:18:58.117Z,6.67
2023-03-20T04:21:27.943Z,6.77
2023-03-20T04:23:57.224Z,5.70
2023-03-20T04:26:24.225Z,4.73
2023-03-20T04:28:53.993Z,5.43
2023-03-20T04:31:43.819Z,5.53
2023-03-20T04:34:26.266Z,5.73
2023-03-20T04:37:16.747Z,8.17
2023-03-20T04:39:51.818Z,6.23
2023-03-20T04:42:23.555Z,6.33
2023-03-20T04:44:55.887Z,6.53
2023-03-20T04:47:24.325Z,6.07
2023-03-20T04:49:53.836Z,5.03
2023-03-20T04:52:20.833Z,5.33
2023-03-20T04:54:47.704Z,6.07
2023-03-20T04:57:14.598Z,6.17
2023-03-20T04:59:43.841Z,8.23
2023-03-20T05:02:15.036Z,5.53
2023-03-20T05:04:47.378Z,6.70
2023-03-20T05:07:19.448Z,5.63
2023-03-20T05:10:14.419Z,7.13
2023-03-20T05:13:01.583Z,7.53
2023-03-20T05:15:46.870Z,5.83
2023-03-20T05:18:39.258Z,6.57
2023-03-20T05:21:34.233Z,6.37
2023-03-20T05:24:23.187Z,6.00
2023-03-20T05:27:18.602Z,7.87
2023-03-20T05:30:04.411Z,9.47
2023-03-20T05:32:52.042Z,7.20
2023-03-20T05:35:37.487Z,7.17
2023-03-20T05:38:17.953Z,8.43
2023-03-20T05:40:59.884Z,7.63
2023-03-20T05:43:43.303Z,7.40
2023-03-20T05:46:36.618Z,10.47
2023-03-20T05:49:20.279Z,9.47
2023-03-20T05:51:57.959Z,10.27
2023-03-20T05:54:36.897Z,10.90
2023-03-20T05:57:17.493Z,10.27
2023-03-20T05:59:57.485Z,9.53
2023-03-20T06:02:47.904Z,9.80
2023-03-20T06:05:49.744Z,11.70
2023-03-20T06:08:19.064Z,13.90
2023-03-20T06:10:46.058Z,11.17
2023-03-20T06:13:13.151Z,12.17
2023-03-20T06:15:40.636Z,12.53
2023-03-20T06:18:17.343Z,13.20
2023-03-20T06:20:46.370Z,11.03
2023-03-20T06:23:16.489Z,12.70
2023-03-20T06:25:43.464Z,12.50
2023-03-20T06:28:16.843Z,13.97
2023-03-20T06:30:47.295Z,12.47
2023-03-20T06:33:20.804Z,14.10
2023-03-20T06:35:59.635Z,12.17
2023-03-20T06:38:32.090Z,14.57
2023-03-20T06:41:04.519Z,15.57
2023-03-20T06:43:34.893Z,16.97
2023-03-20T06:46:03.757Z,12.70
2023-03-20T06:48:31.849Z,12.00
2023-03-20T06:50:59.946Z,16.33
2023-03-20T06:53:37.064Z,16.27
2023-03-20T06:56:07.149Z,13.73
2023-03-20T06:58:42.604Z,17.63
2023-03-20T07:01:13.150Z,16.73
2023-03-20T07:03:43.307Z,17.23
2023-03-20T07:06:15.520Z,17.10
2023-03-20T07:08:42.651Z,14.37
2023-03-20T07:11:10.063Z,16.03
2023-03-20T07:13:38.008Z,17.37
2023-03-20T07:16:14.235Z,16.80
2023-03-20T07:18:48.225Z,15.80
2023-03-20T07:21:23.906Z,17.40
2023-03-20T07:23:56.037Z,18.80
2023-03-20T07:26:22.874Z,19.07
2023-03-20T07:28:55.176Z,18.93
2023-03-20T07:31:31.206Z,18.60
2023-03-20T07:34:32.960Z,23.07
2023-03-20T07:37:03.835Z,21.47
2023-03-20T07:39:34.174Z,19.57
2023-03-20T07:42:34.944Z,19.37
2023-03-20T07:45:14.721Z,22.60
2023-03-20T07:47:48.560Z,22.27
2023-03-20T07:50:16.744Z,24.73
2023-03-20T07:52:51.249Z,22.57
2023-03-20T07:55:25.540Z,20.13
2023-03-20T07:57:57.328Z,21.40
2023-03-20T08:00:29.291Z,19.30
2023-03-20T08:02:56.954Z,21.13
2023-03-20T08:05:27.374Z,18.97
2023-03-20T08:07:56.746Z,19.53
2023-03-20T08:10:23.726Z,18.87
2023-03-20T08:12:53.012Z,19.33
2023-03-20T08:15:22.353Z,20.50
2023-03-20T08:17:49.348Z,16.57
2023-03-20T08:20:19.861Z,19.07
2023-03-20T08:22:47.096Z,17.00
2023-03-20T08:25:21.097Z,20.27
2023-03-20T08:27:51.482Z,15.97
2023-03-20T08:30:18.375Z,15.90
2023-03-20T08:32:45.376Z,19.13
2023-03-20T08:35:29.820Z,15.77
2023-03-20T08:37:59.568Z,16.83
2023-03-20T08:40:31.990Z,19.93
2023-03-20T08:43:01.555Z,15.23
2023-03-20T08:45:30.696Z,14.27
2023-03-20T08:48:02.380Z,17.03
2023-03-20T08:50:32.108Z,20.47
2023-03-20T08:52:58.935Z,21.07
2023-03-20T08:55:28.562Z,19.60
2023-03-20T08:57:57.685Z,21.97
2023-03-20T09:00:24.936Z,19.87
2023-03-20T09:02:56.573Z,18.67
2023-03-20T09:05:23.539Z,16.83
2023-03-20T09:07:52.792Z,19.03
2023-03-20T09:10:22.439Z,19.17
2023-03-20T09:12:51.692Z,23.97
2023-03-20T09:15:23.246Z,24.07
2023-03-20T09:17:50.212Z,22.37
2023-03-20T09:20:19.474Z,22.03
2023-03-20T09:22:48.790Z,20.93
2023-03-20T09:25:18.052Z,23.90
2023-03-20T09:27:47.210Z,18.23
2023-03-20T09:30:14.384Z,19.87
2023-03-20T09:32:41.495Z,18.80
2023-03-20T09:35:11.199Z,22.63
2023-03-20T09:37:40.390Z,23.03
2023-03-20T09:40:11.066Z,22.07
2023-03-20T09:42:47.123Z,23.60
2023-03-20T09:45:45.230Z,18.47
2023-03-20T09:48:30.119Z,21.40
2023-03-20T09:51:27.304Z,19.63
2023-03-20T09:54:10.882Z,21.37
2023-03-20T09:56:40.691Z,17.80
2023-03-20T09:59:16.096Z,21.63
2023-03-20T10:02:17.022Z,18.73
2023-03-20T10:04:47.316Z,16.07
2023-03-20T10:07:18.095Z,16.63
2023-03-20T10:09:46.064Z,21.90
2023-03-20T10:13:00.981Z,15.10
2023-03-20T10:15:56.957Z,16.10
2023-03-20T10:18:29.519Z,15.40
2023-03-20T10:21:23.543Z,16.73
2023-03-20T10:24:15.839Z,14.97
2023-03-20T10:26:47.035Z,16.17
2023-03-20T10:29:26.895Z,16.23
2023-03-20T10:32:17.984Z,14.77
2023-03-20T10:35:24.040Z,16.20
2023-03-20T10:38:22.492Z,15.43
2023-03-20T10:40:58.009Z,14.13
2023-03-20T10:43:38.116Z,12.90
2023-03-20T10:46:33.656Z,15.30
2023-03-20T10:49:08.193Z,12.57
2023-03-20T10:51:54.351Z,11.37
2023-03-20T10:55:03.346Z,11.10
2023-03-20T10:57:37.506Z,12.33
2023-03-20T11:00:11.087Z,11.50
2023-03-20T11:02:40.795Z,11.80
2023-03-20T11:05:39.627Z,14.23
2023-03-20T11:08:16.282Z,11.93
2023-03-20T11:10:44.063Z,12.30
2023-03-20T11:13:47.945Z,11.20
2023-03-20T11:16:26.007Z,10.93
2023-03-20T11:18:55.664Z,10.33
2023-03-20T11:21:31.403Z,10.30
2023-03-20T11:24:01.888Z,7.10
2023-03-20T11:26:41.261Z,9.87
2023-03-20T11:29:46.212Z,7.20
2023-03-20T11:32:54.444Z,8.00
2023-03-20T11:35:33.571Z,8.40
2023-03-20T11:38:15.931Z,9.03
2023-03-20T11:40:43.293Z,6.43
2023-03-20T11:43:18.402Z,8.20
2023-03-20T11:45:54.715Z,7.17
2023-03-20T11:48:41.266Z,7.73
2023-03-20T11:51:16.750Z,7.73
2023-03-20T11:53:48.742Z,7.30
2023-03-20T11:56:25.035Z,8.17
2023-03-20T11:58:57.740Z,8.47
2023-03-20T12:01:27.306Z,6.47
2023-03-20T12:04:05.943Z,7.00
2023-03-20T12:06:47.247Z,9.93
2023-03-20T12:09:38.993Z,5.37
2023-03-20T12:12:45.683Z,4.67
2023-03-20T12:15:46.252Z,5.03
2023-03-20T12:18:17.745Z,4.77
2023-03-20T12:21:13.569Z,4.97
2023-03-20T12:24:01.904Z,5.43
2023-03-20T12:26:46.410Z,4.63
2023-03-20T12:29:32.127Z,4.83
2023-03-20T12:32:10.777Z,5.87
2023-03-20T12:34:50.143Z,6.57
2023-03-20T12:37:20.213Z,4.70
2023-03-20T12:39:53.512Z,4.73
2023-03-20T12:42:23.416Z,5.20
2023-03-20T12:45:09.264Z,6.73
2023-03-20T12:48:03.482Z,5.03
2023-03-20T12:50:39.092Z,5.30
2023-03-20T12:53:30.216Z,5.10
2023-03-20T12:56:32.455Z,4.57
2023-03-20T12:59:26.081Z,3.97
2023-03-20T13:02:12.438Z,4.03
2023-03-20T13:05:10.582Z,4.30
2023-03-20T13:08:17.660Z,4.40
2023-03-20T13:11:10.556Z,3.33
2023-03-20T13:13:55.173Z,4.47
2023-03-20T13:16:42.074Z,4.47
2023-03-20T13:19:18.755Z,2.90
2023-03-20T13:22:11.505Z,2.53
2023-03-20T13:24:44.796Z,2.17
2023-03-20T13:27:35.927Z,2.53
2023-03-20T13:30:30.485Z,2.30
2023-03-20T13:33:34.536Z,1.97
2023-03-20T13:36:24.654Z,1.77
2023-03-20T13:39:22.528Z,2.00
2023-03-20T13:41:50.700Z,2.07
2023-03-20T13:44:27.940Z,1.80
2023-03-20T13:47:05.745Z,2.17
2023-03-20T13:50:24.304Z,1.80
2023-03-20T13:53:09.440Z,1.50
2023-03-20T13:55:57.229Z,4.57
2023-03-20T13:59:04.418Z,2.27
2023-03-20T14:02:08.718Z,1.47
2023-03-20T14:04:35.812Z,1.53
2023-03-20T14:07:41.889Z,2.67
2023-03-20T14:10:26.224Z,1.80
2023-03-20T14:13:01.653Z,2.20
2023-03-20T14:15:38.652Z,1.50
2023-03-20T14:18:21.451Z,1.70
2023-03-20T14:20:56.786Z,2.30
2023-03-20T14:23:49.054Z,1.80
2023-03-20T14:26:29.038Z,1.87
2023-03-20T14:29:10.363Z,1.60
2023-03-20T14:31:45.068Z,2.03
2023-03-20T14:34:12.134Z,1.97
2023-03-20T14:37:05.464Z,2.10
2023-03-20T14:39:52.746Z,1.97
2023-03-20T14:42:28.991Z,1.43
2023-03-20T14:45:13.568Z,1.80
2023-03-20T14:47:47.094Z,2.17
2023-03-20T14:50:46.600Z,1.73
2023-03-20T14:53:29.594Z,2.23
2023-03-20T14:56:15.636Z,2.37
2023-03-20T14:59:05.523Z,4.00
2023-03-20T15:01:38.299Z,2.50
2023-03-20T15:04:26.479Z,1.87
2023-03-20T15:07:13.113Z,2.80
2023-03-20T15:09:51.488Z,2.50
2023-03-20T15:12:24.546Z,2.90
2023-03-20T15:15:01.992Z,3.30
2023-03-20T15:17:41.756Z,2.20
2023-03-20T15:20:16.565Z,2.80
2023-03-20T15:23:01.655Z,1.97
2023-03-20T15:25:36.007Z,2.00
2023-03-20T15:28:23.117Z,3.20
2023-03-20T15:30:56.251Z,3.10
2023-03-20T15:33:41.667Z,2.90
2023-03-20T15:36:23.186Z,2.43
2023-03-20T15:38:53.093Z,2.30
2023-03-20T15:41:28.816Z,3.93
2023-03-20T15:44:16.405Z,2.30
2023-03-20T15:47:09.904Z,2.10
2023-03-20T15:49:43.123Z,2.40
2023-03-20T15:52:34.264Z,1.73
2023-03-20T15:55:17.564Z,2.10
2023-03-20T15:57:47.100Z,2.77
2023-03-20T16:00:26.846Z,2.33
2023-03-20T16:03:00.459Z,2.17
2023-03-20T16:05:31.530Z,1.73
2023-03-20T16:08:26.237Z,2.20
2023-03-20T16:11:02.875Z,2.13
2023-03-20T16:13:41.809Z,1.57
2023-03-20T16:16:18.178Z,1.97
2023-03-20T16:18:47.969Z,1.60
2023-03-20T16:21:28.005Z,1.57
2023-03-20T16:24:00.197Z,1.50
2023-03-20T16:26:30.239Z,1.70
2023-03-20T16:29:02.799Z,2.43
2023-03-20T16:31:42.494Z,1.80
2023-03-20T16:34:20.638Z,1.10
2023-03-20T16:36:56.353Z,1.87
2023-03-20T16:39:29.216Z,3.67
2023-03-20T16:42:11.792Z,1.70
2023-03-20T16:44:47.026Z,1.63
2023-03-20T16:47:23.356Z,1.93
2023-03-20T16:50:12.625Z,2.20
2023-03-20T16:52:46.756Z,2.00
2023-03-20T16:55:24.313Z,1.73
2023-03-20T16:58:03.289Z,2.00
2023-03-20T17:00:43.827Z,1.87
2023-03-20T17:03:40.015Z,1.80
2023-03-20T17:06:50.804Z,2.20
2023-03-20T17:09:28.654Z,1.60
2023-03-20T17:12:20.781Z,2.47
2023-03-20T17:14:49.939Z,1.97
2023-03-20T17:17:24.790Z,1.60
2023-03-20T17:19:52.897Z,1.67
2023-03-20T17:22:23.999Z,1.47
2023-03-20T17:24:58.138Z,1.70
2023-03-20T17:27:28.847Z,1.57
2023-03-20T17:29:58.087Z,2.93
2023-03-20T17:32:25.714Z,1.60
2023-03-20T17:34:54.717Z,1.90
2023-03-20T17:37:31.659Z,1.80
2023-03-20T17:40:03.778Z,3.23
2023-03-20T17:42:35.907Z,2.17
2023-03-20T17:45:06.062Z,2.13
2023-03-20T17:47:32.930Z,2.27
2023-03-20T17:50:04.499Z,3.57
2023-03-20T17:52:33.894Z,3.87
2023-03-20T17:55:05.512Z,2.27
2023-03-20T17:57:39.756Z,1.87
2023-03-20T18:00:17.003Z,2.07
2023-03-20T18:02:49.394Z,2.60
2023-03-20T18:05:18.809Z,4.23
2023-03-20T18:07:50.979Z,2.20
2023-03-20T18:10:32.108Z,2.57
2023-03-20T18:12:59.570Z,1.83
2023-03-20T18:15:26.628Z,1.90
2023-03-20T18:17:53.655Z,2.50
2023-03-20T18:20:26.909Z,2.20
2023-03-20T18:22:59.408Z,2.10
2023-03-20T18:25:26.423Z,3.40
2023-03-20T18:27:58.456Z,2.53
2023-03-20T18:30:48.697Z,3.10
2023-03-20T18:33:19.356Z,3.67
2023-03-20T18:35:49.103Z,1.87
2023-03-20T18:38:16.067Z,2.93
2023-03-20T18:40:47.459Z,2.40
2023-03-20T18:43:18.960Z,2.93
2023-03-20T18:45:46.286Z,2.93
2023-03-20T18:48:18.474Z,1.83
2023-03-20T18:50:50.925Z,2.50
2023-03-20T18:53:20.536Z,1.77
2023-03-20T18:55:47.377Z,2.43
2023-03-20T18:58:26.582Z,3.73
2023-03-20T19:00:56.512Z,2.03
2023-03-20T19:03:24.490Z,2.93
2023-03-20T19:05:57.910Z,2.00
2023-03-20T19:08:25.180Z,2.20
2023-03-20T19:10:52.550Z,2.37
2023-03-20T19:13:24.800Z,1.80
2023-03-20T19:15:51.815Z,2.70
2023-03-20T19:18:24.693Z,3.57
2023-03-20T19:20:55.899Z,2.73
2023-03-20T19:23:28.594Z,2.60
2023-03-20T19:25:55.876Z,2.13
2023-03-20T19:28:39.121Z,4.97
2023-03-20T19:31:07.969Z,3.20
2023-03-20T19:33:41.027Z,2.40
2023-03-20T19:36:22.924Z,2.20
2023-03-20T19:38:52.981Z,2.20
2023-03-20T19:41:27.702Z,3.23
2023-03-20T19:43:58.224Z,2.53
2023-03-20T19:46:39.596Z,3.70
2023-03-20T19:49:20.639Z,4.03
2023-03-20T19:51:49.538Z,1.73
2023-03-20T19:54:18.612Z,2.83
2023-03-20T19:56:50.289Z,3.67
2023-03-20T19:59:17.379Z,4.47
2023-03-20T20:01:45.384Z,3.03
2023-03-20T20:04:15.318Z,3.30
2023-03-20T20:06:42.285Z,5.37
2023-03-20T20:09:11.956Z,3.40
2023-03-20T20:11:39.167Z,4.03
2023-03-20T20:14:14.479Z,3.90
2023-03-20T20:16:45.987Z,5.03
2023-03-20T20:19:20.093Z,2.87
2023-03-20T20:24:38.966Z,3.60
2023-03-20T20:27:19.118Z,3.73
2023-03-20T20:29:53.577Z,3.57
2023-03-20T20:32:23.905Z,3.00
2023-03-20T20:35:39.862Z,3.10
2023-03-20T20:40:33.157Z,4.97
2023-03-20T20:43:09.704Z,3.43
2023-03-20T20:45:37.983Z,2.90
2023-03-20T20:48:09.538Z,2.23
2023-03-20T20:50:36.852Z,2.67
2023-03-20T20:53:08.071Z,2.13
2023-03-20T20:55:35.013Z,2.57
2023-03-20T20:58:03.757Z,3.97
2023-03-20T21:00:47.726Z,4.27
2023-03-20T21:03:22.090Z,3.20
2023-03-20T21:05:49.126Z,3.37
2023-03-20T21:08:18.371Z,3.37
2023-03-20T21:10:46.772Z,3.30
2023-03-20T21:13:17.513Z,6.67
2023-03-20T21:15:47.068Z,2.47
2023-03-20T21:18:18.578Z,3.63
2023-03-20T21:20:50.262Z,9.20
2023-03-20T21:23:22.122Z,5.40
2023-03-20T21:25:49.554Z,4.83
2023-03-20T21:28:16.507Z,3.00
2023-03-20T21:31:12.562Z,3.50
2023-03-20T21:33:38.799Z,4.60
2023-03-20T21:36:13.006Z,3.53
2023-03-20T21:41:33.417Z,3.57
2023-03-20T21:44:03.586Z,4.63
2023-03-20T21:47:03.889Z,4.67
2023-03-20T21:53:06.089Z,3.23
2023-03-20T22:01:39.291Z,2.73
2023-03-20T22:04:31.905Z,2.50
2023-03-20T22:13:03.637Z,3.03
2023-03-20T22:16:03.579Z,3.93
2023-03-20T22:21:41.463Z,3.10
2023-03-20T22:27:28.516Z,3.10
2023-03-20T22:41:32.161Z,4.73
2023-03-20T22:44:25.891Z,3.10
2023-03-20T22:46:43.774Z,2.87
2023-03-20T22:49:06.456Z,3.97
2023-03-20T22:51:44.206Z,5.33
2023-03-20T22:54:21.442Z,2.77
2023-03-20T22:56:52.438Z,5.33
2023-03-20T22:59:21.704Z,2.07
2023-03-20T23:01:51.200Z,6.00
2023-03-20T23:04:18.099Z,2.47
2023-03-20T23:06:45.230Z,3.00
2023-03-20T23:09:19.496Z,3.40
2023-03-20T23:11:51.358Z,3.73
2023-03-20T23:14:21.683Z,2.63
2023-03-20T23:16:52.028Z,3.43
2023-03-20T23:19:18.902Z,3.40
2023-03-20T23:21:52.811Z,2.93
2023-03-20T23:24:23.496Z,5.77
2023-03-20T23:26:54.284Z,4.47
2023-03-20T23:29:25.920Z,3.17
2023-03-20T23:31:55.477Z,2.00
2023-03-20T23:34:22.250Z,4.70
2023-03-20T23:36:51.437Z,2.33
2023-03-20T23:39:19.127Z,6.30
2023-03-20T23:44:37.574Z,3.77
2023-03-20T23:47:14.428Z,3.07
2023-03-20T23:49:49.537Z,3.10
2023-03-20T23:52:16.353Z,7.30
2023-03-20T23:54:43.629Z,2.47
2023-03-20T23:57:11.291Z,2.97
2023-03-20T23:59:38.191Z,2.90
